Time;durP1;ratioP1;P1;durP2;ratioP2;P2;SDS_P1;SDS_P2;PMS_P1;PMS_P2;Temp;Humidity;BMP_temperature;BMP_pressure;BME280_temperature;BME280_humidity;BME280_pressure;Samples;Min_cycle;Max_cycle;Signal;HPM_P1;HPM_P2
2022/01/27 00:01:11;;;;;;;291.23;27.67;;;;;;;;;;5056573;28;20472;-45
2022/01/27 00:03:45;;;;;;;284.77;24.10;;;;;;;;;;5069024;28;20576;-45
2022/01/27 00:06:14;;;;;;;505.20;49.70;;;;;;;;;;5066289;28;21159;-45
2022/01/27 00:08:45;;;;;;;294.87;28.00;;;;;;;;;;5067520;28;20488;-45
2022/01/27 00:11:14;;;;;;;499.67;47.33;;;;;;;;;;5070352;28;20849;-44
2022/01/27 00:13:46;;;;;;;247.40;23.73;;;;;;;;;;5071219;28;20840;-45
2022/01/27 00:16:17;;;;;;;426.20;45.07;;;;;;;;;;5068946;28;20511;-45
2022/01/27 00:18:46;;;;;;;253.60;26.97;;;;;;;;;;5069173;28;20948;-45
2022/01/27 00:21:13;;;;;;;419.93;44.13;;;;;;;;;;5067995;28;20489;-45
2022/01/27 00:23:41;;;;;;;285.77;41.97;;;;;;;;;;5069931;28;20859;-45
2022/01/27 00:26:09;;;;;;;350.47;35.10;;;;;;;;;;5065614;28;20849;-45
2022/01/27 00:28:36;;;;;;;272.40;23.33;;;;;;;;;;5061812;28;20511;-45
2022/01/27 00:31:03;;;;;;;325.73;25.50;;;;;;;;;;5066689;28;20488;-44
2022/01/27 00:33:31;;;;;;;382.20;32.20;;;;;;;;;;5066258;28;20546;-50
2022/01/27 00:35:58;;;;;;;268.00;25.23;;;;;;;;;;5068491;28;20482;-45
2022/01/27 00:38:25;;;;;;;313.90;35.90;;;;;;;;;;5063948;28;20477;-45
2022/01/27 00:40:52;;;;;;;418.60;35.07;;;;;;;;;;5064181;28;20538;-45
2022/01/27 00:43:20;;;;;;;361.40;39.63;;;;;;;;;;5066045;28;21064;-44
2022/01/27 00:45:47;;;;;;;270.03;27.03;;;;;;;;;;5065008;28;20470;-44
2022/01/27 00:48:16;;;;;;;464.73;43.23;;;;;;;;;;5066376;28;20480;-45
2022/01/27 00:50:47;;;;;;;255.07;29.23;;;;;;;;;;5075686;28;20472;-45
2022/01/27 00:53:30;;;;;;;459.30;45.17;;;;;;;;;;5067115;28;20581;-45
2022/01/27 00:56:05;;;;;;;305.77;29.57;;;;;;;;;;5075430;28;20458;-44
2022/01/27 00:58:45;;;;;;;204.87;26.53;;;;;;;;;;5059910;28;20545;-45
2022/01/27 01:01:13;;;;;;;498.87;51.10;;;;;;;;;;5062976;28;20537;-45
2022/01/27 01:03:44;;;;;;;258.53;30.63;;;;;;;;;;5073444;28;20474;-45
2022/01/27 01:06:25;;;;;;;535.17;59.17;;;;;;;;;;5071875;28;21019;-45
2022/01/27 01:14:40;;;;;;;205.27;46.30;;;;;;;;;;5054795;28;20517;-45
2022/01/27 01:17:15;;;;;;;350.87;57.80;;;;;;;;;;5067719;28;20472;-44
2022/01/27 01:19:59;;;;;;;310.00;116.10;;;;;;;;;;5067901;28;20558;-45
2022/01/27 01:30:53;;;;;;;258.20;26.13;;;;;;;;;;5068580;28;20836;-45
2022/01/27 01:33:25;;;;;;;404.63;61.80;;;;;;;;;;5060022;28;20488;-45
2022/01/27 01:36:01;;;;;;;183.80;23.00;;;;;;;;;;5064998;28;20597;-45
2022/01/27 01:38:30;;;;;;;180.70;21.70;;;;;;;;;;5063421;28;20588;-46
2022/01/27 01:40:57;;;;;;;295.20;31.13;;;;;;;;;;5076125;28;20573;-44
2022/01/27 01:43:25;;;;;;;236.37;26.23;;;;;;;;;;5075437;28;20496;-44
2022/01/27 01:45:52;;;;;;;266.47;25.90;;;;;;;;;;5067187;28;20482;-45
2022/01/27 01:48:20;;;;;;;367.93;37.77;;;;;;;;;;5066007;28;20481;-44
2022/01/27 01:50:47;;;;;;;250.77;28.10;;;;;;;;;;5066554;28;20476;-44
2022/01/27 01:53:14;;;;;;;404.13;38.93;;;;;;;;;;5064443;28;20497;-45
2022/01/27 01:55:42;;;;;;;215.17;27.10;;;;;;;;;;5077589;28;20535;-48
2022/01/27 01:58:10;;;;;;;326.47;32.07;;;;;;;;;;5070735;28;20925;-45
2022/01/27 02:00:37;;;;;;;198.03;20.20;;;;;;;;;;5063032;28;20932;-46
2022/01/27 02:03:04;;;;;;;175.03;31.10;;;;;;;;;;5080819;27;20519;-46
2022/01/27 02:05:38;;;;;;;177.03;19.97;;;;;;;;;;5075671;27;20486;-46
2022/01/27 02:08:30;;;;;;;242.67;25.50;;;;;;;;;;5052609;28;20489;-45
2022/01/27 02:19:15;;;;;;;400.93;37.13;;;;;;;;;;5076051;28;20524;-45
2022/01/27 02:21:45;;;;;;;290.53;27.83;;;;;;;;;;5064193;28;20476;-45
2022/01/27 02:24:13;;;;;;;184.00;20.77;;;;;;;;;;5071963;28;20551;-45
2022/01/27 02:26:41;;;;;;;196.70;25.60;;;;;;;;;;5072594;28;20488;-45
2022/01/27 02:29:08;;;;;;;370.77;34.40;;;;;;;;;;5058275;28;20974;-45
2022/01/27 02:31:35;;;;;;;213.47;24.67;;;;;;;;;;5065386;28;20499;-45
2022/01/27 02:34:04;;;;;;;237.83;27.13;;;;;;;;;;5062191;28;20478;-44
2022/01/27 02:36:32;;;;;;;302.00;37.20;;;;;;;;;;5056914;28;20650;-46
2022/01/27 02:39:00;;;;;;;262.80;28.93;;;;;;;;;;5081101;28;20523;-45
2022/01/27 02:41:28;;;;;;;176.30;20.57;;;0.20;99.80;;;;;;5061844;28;20484;-45
2022/01/27 02:43:56;;;;;;;254.93;27.97;;;;;;;;;;5067730;28;20478;-45
2022/01/27 02:46:26;;;;;;;459.27;40.93;;;;;;;;;;5066261;28;20482;-45
2022/01/27 02:48:53;;;;;;;307.53;32.50;;;;;;;;;;5069793;28;20486;-45
2022/01/27 02:51:20;;;;;;;333.57;37.17;;;;;;;;;;5075765;28;20494;-45
2022/01/27 02:53:47;;;;;;;207.77;22.20;;;;;;;;;;5080533;28;20481;-45
2022/01/27 02:56:16;;;;;;;658.00;75.90;;;;;;;;;;5074819;28;21092;-46
2022/01/27 02:58:43;;;;;;;300.23;33.27;;;;;;;;;;5065204;28;20878;-45
2022/01/27 03:01:11;;;;;;;420.80;54.50;;;;;;;;;;5067558;28;20473;-45
2022/01/27 03:03:38;;;;;;;237.50;54.23;;;;;;;;;;5061792;28;20472;-45
2022/01/27 03:06:05;;;;;;;253.60;34.17;;;;;;;;;;5064576;28;20485;-45
2022/01/27 03:08:32;;;;;;;239.57;27.10;;;;;;;;;;5074386;28;20509;-46
2022/01/27 03:11:00;;;;;;;243.53;35.70;;;;;;;;;;5072108;28;20489;-45
2022/01/27 03:13:30;;;;;;;253.13;27.67;;;;;;;;;;5061908;28;20850;-45
2022/01/27 03:15:58;;;;;;;269.20;31.10;;;;;;;;;;5063173;28;20553;-45
2022/01/27 03:18:25;;;;;;;314.37;37.73;;;;;;;;;;5067499;28;21053;-45
2022/01/27 03:20:52;;;;;;;217.60;24.47;;;;;;;;;;5072196;28;20482;-45
2022/01/27 03:23:19;;;;;;;352.37;38.50;;;;;;;;;;5068084;28;20481;-46
2022/01/27 03:25:47;;;;;;;227.50;27.90;;;;;;;;;;5070196;28;20478;-46
2022/01/27 03:28:15;;;;;;;419.73;46.70;;;;;;;;;;5071700;28;20483;-45
2022/01/27 03:30:43;;;;;;;192.90;24.97;;;;;;;;;;5034534;28;20474;-46
2022/01/27 03:33:10;;;;;;;341.03;48.50;;;;;;;;;;5037728;28;20542;-45
2022/01/27 03:35:38;;;;;;;173.13;22.03;;;;;;;;;;5060468;28;20495;-45
2022/01/27 03:38:05;;;;;;;158.47;16.40;;;;;;;;;;5059107;28;20991;-45
2022/01/27 03:40:32;;;;;;;105.33;12.23;;;;;;;;;;5064218;28;20849;-45
2022/01/27 03:43:05;;;;;;;231.10;24.53;;;;;;;;;;5064082;28;20474;-45
2022/01/27 03:45:32;;;;;;;157.23;23.17;;;;;;;;;;5066562;28;20478;-45
2022/01/27 03:48:01;;;;;;;197.07;24.13;;;;;;;;;;5060179;28;20548;-46
2022/01/27 03:50:28;;;;;;;145.13;27.03;;;;;;;;;;5065797;28;20482;-45
2022/01/27 03:52:55;;;;;;;252.83;30.27;;;;;;;;;;5069728;28;20543;-45
2022/01/27 03:55:22;;;;;;;223.43;24.50;;;;;;;;;;5049092;28;20517;-45
2022/01/27 03:57:49;;;;;;;196.20;21.57;;;;;;;;;;5090597;28;20889;-45
2022/01/27 04:00:17;;;;;;;383.93;45.60;;;;;;;;;;5066021;28;20863;-45
2022/01/27 04:02:55;;;;;;;191.57;24.90;;;;;;;;;;5044656;28;20482;-45
2022/01/27 04:05:24;;;;;;;279.03;29.77;;;;;;;;;;5048453;28;20481;-45
2022/01/27 04:07:56;;;;;;;237.97;26.40;;;;;;;;;;5068638;28;20893;-45
2022/01/27 04:10:24;;;;;;;222.80;30.53;;;;;;;;;;5071395;28;20485;-45
2022/01/27 04:12:51;;;;;;;203.63;30.80;;;;;;;;;;5073364;28;20489;-45
2022/01/27 04:15:18;;;;;;;450.93;46.40;;;;;;;;;;5064377;28;20547;-45
2022/01/27 04:17:45;;;;;;;254.83;37.80;;;;;;;;;;5046015;28;20559;-44
2022/01/27 04:20:13;;;;;;;387.17;37.37;;;;;;;;;;5061184;28;20485;-45
2022/01/27 04:22:42;;;;;;;193.03;21.97;;;;;;;;;;5070371;28;20996;-45
2022/01/27 04:25:11;;;;;;;266.43;24.63;;;0.40;99.90;;;;;;5065029;28;20487;-45
2022/01/27 04:27:40;;;;;;;108.07;13.80;;;;;;;;;;5043494;28;21157;-45
2022/01/27 04:30:13;;;;;;;179.70;28.57;;;;;;;;;;5063119;28;20493;-44
2022/01/27 04:32:45;;;;;;;258.07;28.30;;;;;;;;;;5069623;28;20472;-45
2022/01/27 04:35:16;;;;;;;358.57;36.23;;;;;;;;;;5070641;28;20529;-45
2022/01/27 04:37:56;;;;;;;220.83;20.07;;;;;;;;;;5070092;28;20489;-45
2022/01/27 04:40:28;;;;;;;287.00;28.97;;;;;;;;;;5055204;28;20975;-45
2022/01/27 04:43:01;;;;;;;242.50;27.10;;;;;;;;;;5072968;28;20532;-44
2022/01/27 04:45:35;;;;;;;169.23;21.60;;;;;;;;;;5072691;28;20478;-47
2022/01/27 04:48:09;;;;;;;247.47;30.50;;;;;;;;;;5063713;28;21251;-44
2022/01/27 04:50:37;;;;;;;169.47;19.83;;;;;;;;;;5076932;28;20496;-45
2022/01/27 04:53:08;;;;;;;202.77;26.33;;;0.30;99.90;;;;;;5073402;28;20837;-44
2022/01/27 04:55:36;;;;;;;202.27;27.73;;;;;;;;;;5069824;28;20485;-45
2022/01/27 04:58:11;;;;;;;247.07;33.80;;;;;;;;;;5067601;28;20480;-44
2022/01/27 05:00:38;;;;;;;241.07;26.60;;;;;;;;;;5078254;28;20562;-44
2022/01/27 05:03:14;;;;;;;208.20;25.67;;;;;;;;;;5066121;28;20484;-44
2022/01/27 05:05:42;;;;;;;147.70;19.10;;;;;;;;;;5072358;28;21131;-44
2022/01/27 05:08:16;;;;;;;186.50;24.00;;;;;;;;;;5060624;28;20493;-45
2022/01/27 05:10:52;;;;;;;191.10;22.77;;;;;;;;;;5070771;28;20478;-45
2022/01/27 05:13:21;;;;;;;334.23;32.73;;;;;;;;;;5060187;28;20957;-45
2022/01/27 05:15:48;;;;;;;212.47;25.53;;;;;;;;;;5055363;28;20466;-45
2022/01/27 05:18:16;;;;;;;334.57;33.63;;;;;;;;;;5054892;28;21023;-44
2022/01/27 05:20:43;;;;;;;202.37;26.23;;;;;;;;;;5058841;28;20524;-45
2022/01/27 05:23:12;;;;;;;351.00;35.60;;;;;;;;;;5055651;28;21039;-45
2022/01/27 05:25:39;;;;;;;221.57;25.60;;;;;;;;;;5057391;28;20470;-45
2022/01/27 05:28:07;;;;;;;185.63;19.23;;;;;;;;;;5054099;28;21043;-45
2022/01/27 05:30:35;;;;;;;198.63;24.33;;;;;;;;;;5047758;28;20560;-45
2022/01/27 05:33:02;;;;;;;258.40;24.67;;;;;;;;;;5063958;28;20486;-45
2022/01/27 05:35:29;;;;;;;152.57;18.10;;;;;;;;;;5061630;28;20467;-45
2022/01/27 05:37:56;;;;;;;254.10;23.43;;;;;;;;;;5068042;28;20501;-45
2022/01/27 05:40:24;;;;;;;269.57;26.33;;;;;;;;;;5081424;28;20473;-44
2022/01/27 05:42:52;;;;;;;249.03;25.40;;;;;;;;;;5028021;28;20552;-44
2022/01/27 05:45:19;;;;;;;398.67;36.07;;;;;;;;;;5049613;28;21003;-44
2022/01/27 05:47:46;;;;;;;194.43;22.90;;;;;;;;;;5036538;28;20509;-45
2022/01/27 05:50:13;;;;;;;226.60;22.60;;;;;;;;;;5042760;28;20490;-45
2022/01/27 05:52:40;;;;;;;212.13;23.80;;;;;;;;;;5039066;28;20484;-45
2022/01/27 05:55:08;;;;;;;228.63;26.23;;;;;;;;;;5052118;28;20498;-45
2022/01/27 05:57:36;;;;;;;194.60;22.50;;;;;;;;;;5067157;28;20553;-45
2022/01/27 06:00:04;;;;;;;251.63;30.50;;;;;;;;;;5072615;28;20597;-44
2022/01/27 06:02:31;;;;;;;207.37;26.03;;;;;;;;;;5072121;28;20490;-45
2022/01/27 06:05:02;;;;;;;274.70;27.80;;;;;;;;;;5075893;28;20488;-45
2022/01/27 06:07:29;;;;;;;211.00;25.20;;;;;;;;;;5062510;28;20481;-45
2022/01/27 06:09:56;;;;;;;256.37;26.60;;;;;;;;;;5063670;28;20967;-45
2022/01/27 06:12:23;;;;;;;374.17;39.07;;;;;;;;;;5072106;28;20542;-44
2022/01/27 06:14:52;;;;;;;216.67;25.00;;;;;;;;;;5071310;28;20480;-43
2022/01/27 06:17:19;;;;;;;338.77;44.10;;;;;;;;;;5060992;28;20523;-44
2022/01/27 06:19:47;;;;;;;279.37;39.43;;;;;;;;;;5069458;28;20530;-44
2022/01/27 06:22:14;;;;;;;399.13;43.77;;;;;;;;;;5064471;28;20539;-44
2022/01/27 06:24:41;;;;;;;243.80;35.30;;;;;;;;;;5075308;28;20566;-44
2022/01/27 06:27:08;;;;;;;318.27;43.93;;;;;;;;;;5072961;28;20484;-45
2022/01/27 06:29:35;;;;;;;225.93;28.63;;;;;;;;;;5074393;28;20554;-44
2022/01/27 06:32:04;;;;;;;231.93;25.47;;;;;;;;;;5063097;28;20730;-45
2022/01/27 06:34:31;;;;;;;265.40;24.93;;;;;;;;;;5085802;27;20541;-48
2022/01/27 06:36:59;;;;;;;324.07;44.93;;;;;;;;;;5063671;28;20890;-45
2022/01/27 06:39:26;;;;;;;357.97;44.07;;;;;;;;;;5067288;28;20532;-44
2022/01/27 06:41:53;;;;;;;222.37;25.27;;;;;;;;;;5039414;28;20528;-44
2022/01/27 06:44:20;;;;;;;395.83;43.43;;;;;;;;;;5057238;28;20471;-44
2022/01/27 06:46:47;;;;;;;344.47;40.03;;;;;;;;;;5049665;28;20512;-44
2022/01/27 06:49:16;;;;;;;516.93;55.60;;;;;;;;;;5057581;28;20486;-44
2022/01/27 06:51:44;;;;;;;179.30;22.33;;;;;;;;;;5060713;28;20483;-45
2022/01/27 06:54:11;;;;;;;361.33;40.50;;;;;;;;;;5060523;28;20564;-44
2022/01/27 06:56:38;;;;;;;410.90;41.37;;;;;;;;;;5058138;28;21005;-45
2022/01/27 06:59:05;;;;;;;246.97;27.67;;;;;;;;;;5061243;28;20497;-44
2022/01/27 07:01:33;;;;;;;250.03;36.07;;;;;;;;;;5059282;28;20483;-45
2022/01/27 07:04:01;;;;;;;238.40;34.77;;;;;;;;;;5060621;28;20527;-45
2022/01/27 07:06:30;;;;;;;460.70;47.30;;;;;;;;;;5043470;28;21026;-44
2022/01/27 07:08:57;;;;;;;164.23;17.10;;;;;;;;;;5029296;28;20486;-45
2022/01/27 07:11:24;;;;;;;298.53;39.00;;;;;;;;;;5040764;28;20480;-44
2022/01/27 07:13:51;;;;;;;225.37;24.77;;;;;;;;;;5041752;28;20993;-45
2022/01/27 07:16:18;;;;;;;523.53;52.80;;;;;;;;;;5040425;28;20487;-45
2022/01/27 07:18:45;;;;;;;171.73;21.60;;;;;;;;;;5039187;28;20490;-45
2022/01/27 07:21:12;;;;;;;434.27;45.83;;;;;;;;;;5051939;28;20599;-44
2022/01/27 07:23:41;;;;;;;242.23;32.23;;;;;;;;;;5052113;28;20544;-45
2022/01/27 07:26:08;;;;;;;277.07;33.80;;;;;;;;;;5055396;28;20550;-44
2022/01/27 07:28:35;;;;;;;150.30;20.80;;;;;;;;;;5038792;28;20893;-44
2022/01/27 07:31:03;;;;;;;268.00;29.87;;;;;;;;;;5045344;28;20555;-45
2022/01/27 07:33:30;;;;;;;258.87;26.27;;;;;;;;;;5046030;28;20486;-44
2022/01/27 07:35:57;;;;;;;218.83;24.83;;;;;;;;;;5057435;28;21452;-44
2022/01/27 07:38:26;;;;;;;356.23;48.23;;;;;;;;;;5057122;28;20841;-44
2022/01/27 07:40:54;;;;;;;299.70;43.60;;;-0.30;99.90;;;;;;5058233;28;20469;-44
2022/01/27 07:43:21;;;;;;;358.50;36.63;;;;;;;;;;5060269;28;20492;-44
2022/01/27 07:45:49;;;;;;;231.47;23.50;;;;;;;;;;5061792;28;20481;-44
2022/01/27 07:48:16;;;;;;;425.47;42.93;;;;;;;;;;5056881;28;20494;-44
2022/01/27 07:50:44;;;;;;;242.73;27.60;;;;;;;;;;5057102;28;20494;-45
2022/01/27 07:53:11;;;;;;;336.57;36.43;;;;;;;;;;5041073;28;21229;-44
2022/01/27 07:55:39;;;;;;;130.20;20.67;;;;;;;;;;5042393;28;21000;-44
2022/01/27 07:58:07;;;;;;;313.87;32.37;;;;;;;;;;5067965;28;20487;-44
2022/01/27 08:00:34;;;;;;;289.60;54.07;;;;;;;;;;5066205;28;20479;-44
2022/01/27 08:03:02;;;;;;;255.00;28.13;;;;;;;;;;5070187;28;21015;-45
2022/01/27 08:05:29;;;;;;;167.50;20.20;;;;;;;;;;5067200;28;20529;-45
2022/01/27 08:07:56;;;;;;;234.30;27.87;;;;;;;;;;5056154;28;20478;-45
2022/01/27 08:10:23;;;;;;;402.77;43.50;;;;;;;;;;5062480;28;20616;-45
2022/01/27 08:12:50;;;;;;;338.63;41.93;;;;;;;;;;5060512;28;20478;-44
2022/01/27 08:15:22;;;;;;;467.60;49.87;;;;;;;;;;5050748;28;21025;-45
2022/01/27 08:17:49;;;;;;;221.07;27.93;;;;;;;;;;5068867;28;20488;-45
2022/01/27 08:20:16;;;;;;;726.33;81.57;;;;;;;;;;5046828;28;21183;-45
2022/01/27 08:22:44;;;;;;;347.67;37.13;;;;;;;;;;5061162;28;20480;-45
2022/01/27 08:25:12;;;;;;;431.30;45.97;;;;;;;;;;5065780;28;20938;-45
2022/01/27 08:27:41;;;;;;;323.77;34.93;;;;;;;;;;5061528;28;20479;-46
2022/01/27 08:30:09;;;;;;;396.40;40.33;;;;;;;;;;5062147;28;20542;-45
2022/01/27 08:32:47;;;;;;;334.40;29.53;;;;;;;;;;5066763;28;21073;-46
2022/01/27 08:35:15;;;;;;;578.53;63.83;;;;;;;;;;5065978;28;20492;-45
2022/01/27 08:37:42;;;;;;;356.10;36.27;;;;;;;;;;5084154;27;20509;-45
2022/01/27 08:40:11;;;;;;;448.70;43.83;;;;;;;;;;5066012;28;20839;-45
2022/01/27 08:42:40;;;;;;;447.10;54.20;;;;;;;;;;5089956;27;20483;-45
2022/01/27 08:45:08;;;;;;;436.67;38.07;;;;;;;;;;5060061;28;20844;-45
2022/01/27 08:47:35;;;;;;;317.40;30.10;;;;;;;;;;5081686;27;20466;-45
2022/01/27 08:50:04;;;;;;;355.37;37.43;;;;;;;;;;5066644;28;20477;-45
2022/01/27 08:52:31;;;;;;;392.33;37.67;;;;;;;;;;5051320;28;20827;-45
2022/01/27 08:54:58;;;;;;;406.43;40.87;;;;;;;;;;5066593;28;20858;-46
2022/01/27 08:57:25;;;;;;;355.57;38.67;;;;;;;;;;5061291;28;20912;-45
2022/01/27 08:59:53;;;;;;;334.93;32.87;;;;;;;;;;5066266;28;20533;-45
2022/01/27 09:02:20;;;;;;;466.10;45.60;;;;;;;;;;5063655;28;20868;-44
2022/01/27 09:04:47;;;;;;;370.57;34.53;;;;;;;;;;5066251;28;20489;-44
2022/01/27 09:07:16;;;;;;;499.23;47.77;;;;;;;;;;5060256;28;20490;-45
2022/01/27 09:09:43;;;;;;;389.23;37.53;;;;;;;;;;5067274;28;21018;-44
2022/01/27 09:12:11;;;;;;;426.20;42.47;;;;;;;;;;5067463;28;21076;-45
2022/01/27 09:14:40;;;;;;;406.30;36.83;;;;;;;;;;5063734;28;20488;-45
2022/01/27 09:17:07;;;;;;;361.80;38.33;;;;;;;;;;5065981;28;20473;-45
2022/01/27 09:19:37;;;;;;;400.00;35.57;;;;;;;;;;5069723;28;20480;-50
2022/01/27 09:22:07;;;;;;;277.43;30.40;;;;;;;;;;5068992;28;20596;-44
2022/01/27 09:24:41;;;;;;;323.87;34.53;;;;;;;;;;5070039;28;20476;-45
2022/01/27 09:27:09;;;;;;;478.20;43.10;;;;;;;;;;5052666;28;20479;-45
2022/01/27 09:29:36;;;;;;;392.90;36.33;;;;;;;;;;5062900;28;20485;-51
2022/01/27 09:32:03;;;;;;;303.33;27.30;;;;;;;;;;5075396;27;20567;-45
2022/01/27 09:34:31;;;;;;;369.03;34.50;;;;;;;;;;5081009;27;20905;-45
2022/01/27 09:37:02;;;;;;;367.67;33.60;;;;;;;;;;5064993;28;20480;-44
2022/01/27 09:39:29;;;;;;;345.87;36.40;;;;;;;;;;5071026;28;20475;-44
2022/01/27 09:41:58;;;;;;;346.60;37.23;;;;;;;;;;5068539;28;20472;-44
2022/01/27 09:44:28;;;;;;;482.27;52.33;;;;;;;;;;5067339;28;20479;-44
2022/01/27 09:46:57;;;;;;;324.47;37.13;;;;;;;;;;5065046;28;20515;-45
2022/01/27 09:49:32;;;;;;;421.50;42.37;;;;;;;;;;5068537;28;20474;-45
2022/01/27 09:51:59;;;;;;;396.90;47.70;;;;;;;;;;5068175;28;20487;-44
2022/01/27 09:54:26;;;;;;;307.43;37.43;;;;;;;;;;5068645;28;20915;-44
2022/01/27 09:56:54;;;;;;;415.80;48.63;;;;;;;;;;5065144;28;20476;-45
2022/01/27 09:59:23;;;;;;;489.03;70.00;;;;;;;;;;5065799;28;20796;-45
2022/01/27 10:01:57;;;;;;;333.57;43.73;;;;;;;;;;5068750;28;21050;-45
2022/01/27 10:04:26;;;;;;;391.97;47.80;;;;;;;;;;5069567;28;20470;-45
2022/01/27 10:06:57;;;;;;;404.40;38.97;;;;;;;;;;5064349;28;21058;-45
2022/01/27 10:09:27;;;;;;;380.30;38.97;;;;;;;;;;5065426;28;20668;-46
2022/01/27 10:11:55;;;;;;;396.57;46.17;;;;;;;;;;5066861;28;20567;-45
2022/01/27 10:14:27;;;;;;;493.20;53.60;;;;;;;;;;5068818;28;20564;-45
2022/01/27 10:16:55;;;;;;;290.97;37.37;;;;;;;;;;5064071;28;20485;-45
2022/01/27 10:19:22;;;;;;;614.27;73.73;;;;;;;;;;5074846;27;21482;-44
2022/01/27 10:21:51;;;;;;;351.20;44.73;;;;;;;;;;5068312;27;20481;-45
2022/01/27 10:24:20;;;;;;;491.50;53.07;;;;;;;;;;5065809;28;20480;-45
2022/01/27 10:26:53;;;;;;;481.77;128.73;;;;;;;;;;5053469;28;20483;-45
2022/01/27 10:29:37;;;;;;;415.37;69.77;;;;;;;;;;5061412;28;20493;-45
2022/01/27 10:32:09;;;;;;;281.77;30.97;;;;;;;;;;5046316;28;21152;-45
2022/01/27 10:34:51;;;;;;;383.17;43.60;;;;;;;;;;5065342;28;20481;-45
2022/01/27 10:37:18;;;;;;;550.47;74.17;;;;;;;;;;5077116;27;20993;-46
2022/01/27 10:39:46;;;;;;;331.57;53.23;;;;;;;;;;5074984;27;20553;-43
2022/01/27 10:42:13;;;;;;;496.10;48.50;;;;;;;;;;5068383;28;20757;-44
2022/01/27 10:44:44;;;;;;;319.03;33.53;;;;;;;;;;5070097;28;20485;-44
2022/01/27 10:47:16;;;;;;;473.03;76.27;;;;;;;;;;5062902;28;20787;-44
2022/01/27 10:49:48;;;;;;;326.70;43.13;;;;;;;;;;5068461;28;21008;-43
2022/01/27 10:52:18;;;;;;;486.27;54.17;;;;;;;;;;5064977;28;20512;-44
2022/01/27 10:54:55;;;;;;;362.73;36.07;;;;;;;;;;5067665;28;20473;-44
2022/01/27 10:57:24;;;;;;;435.23;49.27;;;;;;;;;;5061925;28;20888;-44
2022/01/27 10:59:52;;;;;;;402.10;47.73;;;;;;;;;;5066392;28;20934;-44
2022/01/27 11:02:21;;;;;;;375.30;42.53;;;;;;;;;;5064322;28;20485;-45
2022/01/27 11:04:48;;;;;;;334.70;41.10;;;;;;;;;;5069946;28;21059;-45
2022/01/27 11:07:17;;;;;;;485.77;55.77;;;;;;;;;;5061559;28;20484;-45
2022/01/27 11:09:44;;;;;;;368.73;44.23;;;;;;;;;;5068601;28;20481;-44
2022/01/27 11:12:14;;;;;;;395.07;47.43;;;;;;;;;;5061614;28;20485;-45
2022/01/27 11:14:42;;;;;;;327.87;33.43;;;;;;;;;;5065395;28;20477;-44
2022/01/27 11:17:17;;;;;;;418.10;45.03;;;;;;;;;;5037489;28;20917;-44
2022/01/27 11:23:35;;;;;;;296.37;27.73;;;;;;;;;;5055234;27;20553;-45
2022/01/27 11:26:02;;;;;;;287.00;28.37;;;;;;;;;;5056022;28;20450;-45
2022/01/27 11:28:31;;;;;;;381.83;45.67;;;;;;;;;;5034914;28;20865;-44
2022/01/27 11:31:07;;;;;;;353.50;43.27;;;;;;;;;;5038894;28;20529;-44
2022/01/27 11:33:35;;;;;;;343.37;24.60;;;;;;;;;;5039912;28;20683;-44
2022/01/27 11:36:09;;;;;;;274.27;24.63;;;;;;;;;;5046239;28;20491;-45
2022/01/27 11:38:38;;;;;;;318.43;30.77;;;;;;;;;;5033231;28;20870;-45
2022/01/27 11:41:05;;;;;;;306.93;37.17;;;;;;;;;;5042919;28;20951;-45
2022/01/27 11:43:34;;;;;;;328.57;37.30;;;;;;;;;;5043774;28;21353;-44
2022/01/27 11:46:13;;;;;;;388.27;46.33;;;;;;;;;;5056433;28;20826;-45
2022/01/27 11:48:40;;;;;;;312.07;37.63;;;;;;;;;;5038303;28;20474;-45
2022/01/27 11:51:12;;;;;;;419.03;47.40;;;;;;;;;;5036366;28;20479;-45
2022/01/27 11:53:43;;;;;;;303.00;38.20;;;;;;;;;;5035867;28;20939;-44
2022/01/27 11:56:15;;;;;;;443.90;44.60;;;;;;;;;;5034839;28;20514;-45
2022/01/27 11:58:44;;;;;;;333.73;37.87;;;;;;;;;;5031167;28;20490;-44
2022/01/27 12:01:14;;;;;;;421.13;40.87;;;;;;;;;;5042249;28;20504;-45
2022/01/27 12:03:41;;;;;;;364.77;54.00;;;;;;;;;;5041136;28;20474;-44
2022/01/27 12:06:22;;;;;;;383.47;46.43;;;;;;;;;;5030208;28;20927;-45
2022/01/27 12:08:50;;;;;;;333.07;35.63;;;;;;;;;;5021529;28;20479;-45
2022/01/27 12:11:43;;;;;;;492.00;45.50;;;;;;;;;;5036029;28;20499;-45
2022/01/27 12:14:10;;;;;;;491.87;49.90;;;;;;;;;;5042692;28;20496;-45
2022/01/27 12:19:18;;;;;;;514.00;61.13;;;;;;;;;;5035273;28;20947;-45
2022/01/27 12:21:55;;;;;;;321.70;26.33;;;;;;;;;;5040330;28;20478;-47
2022/01/27 12:24:25;;;;;;;454.80;49.43;;;;;;;;;;5031273;28;20474;-45
2022/01/27 12:26:56;;;;;;;385.93;45.70;;;;;;;;;;5039330;28;20486;-46
2022/01/27 12:29:33;;;;;;;435.23;49.53;;;;;;;;;;5046003;28;20911;-45
2022/01/27 12:32:01;;;;;;;372.70;40.53;;;;;;;;;;5040098;28;20486;-45
2022/01/27 12:34:29;;;;;;;324.07;40.63;;;;;;;;;;5019116;28;21047;-45
2022/01/27 12:37:00;;;;;;;384.50;34.67;;;;;;;;;;5018027;28;20551;-46
2022/01/27 12:39:29;;;;;;;321.77;35.20;;;;;;;;;;5022962;28;20491;-45
2022/01/27 12:41:56;;;;;;;369.17;29.50;;;;;;;;;;5023875;28;20529;-44
2022/01/27 12:44:25;;;;;;;457.93;50.13;;;;;;;;;;5030058;28;20485;-44
2022/01/27 12:47:06;;;;;;;320.83;31.60;;;;;;;;;;5020197;28;20531;-46
2022/01/27 12:49:38;;;;;;;257.27;25.27;;;;;;;;;;5043749;28;20803;-44
2022/01/27 12:52:08;;;;;;;347.93;39.93;;;;;;;;;;5045153;28;20483;-44
2022/01/27 12:54:36;;;;;;;419.90;41.03;;;;;;;;;;5037535;28;20562;-45
2022/01/27 12:57:04;;;;;;;321.40;34.50;;;;;;;;;;5038734;28;20504;-45
2022/01/27 12:59:31;;;;;;;296.73;30.93;;;;;;;;;;5043336;28;20485;-44
2022/01/27 13:01:59;;;;;;;310.67;41.63;;;;;;;;;;5054968;28;20488;-44
2022/01/27 13:04:27;;;;;;;412.67;44.00;;;;;;;;;;5048881;28;20831;-45
2022/01/27 13:06:54;;;;;;;303.00;29.30;;;;;;;;;;5043470;28;21112;-45
2022/01/27 13:09:21;;;;;;;420.40;41.90;;;;;;;;;;5043581;28;20486;-44
2022/01/27 13:11:52;;;;;;;374.27;38.13;;;;;;;;;;5049867;28;20924;-44
2022/01/27 13:14:20;;;;;;;466.70;40.50;;;;;;;;;;5032912;28;20488;-45
2022/01/27 13:16:50;;;;;;;456.10;38.03;;;;;;;;;;5040017;28;20581;-45
2022/01/27 13:19:24;;;;;;;505.87;43.90;;;;;;;;;;5039528;28;20468;-44
2022/01/27 13:22:00;;;;;;;332.23;45.50;;;;;;;;;;5040037;28;20735;-44
2022/01/27 13:24:30;;;;;;;413.20;36.30;;;;;;;;;;5047537;28;20690;-44
2022/01/27 13:27:05;;;;;;;364.57;40.90;;;;;;;;;;5043302;28;20588;-43
2022/01/27 13:29:40;;;;;;;342.90;28.93;;;;;;;;;;5060235;28;20489;-44
2022/01/27 13:32:07;;;;;;;435.17;45.40;;;;;;;;;;5046621;28;20485;-44
2022/01/27 13:34:34;;;;;;;338.07;29.47;;;;;;;;;;5046377;28;20489;-44
2022/01/27 13:37:03;;;;;;;298.23;31.73;;;;;;;;;;5045918;28;20535;-44
2022/01/27 13:41:16;;;;;;;388.73;38.07;;;;;;;;;;5040387;28;20491;-44
2022/01/27 13:42:25;;;;;;;509.10;49.27;;;;;;;;;;5036380;28;21117;-44
2022/01/27 13:44:53;;;;;;;413.30;39.13;;;;;;;;;;5045975;28;20492;-46
2022/01/27 13:47:25;;;;;;;580.53;64.20;;;;;;;;;;5034749;28;20606;-44
2022/01/27 13:49:52;;;;;;;388.70;40.00;;;;;;;;;;5031784;28;20526;-48
2022/01/27 13:52:19;;;;;;;469.97;47.43;;;;;;;;;;5039923;28;20882;-44
2022/01/27 13:54:47;;;;;;;372.00;31.37;;;;;;;;;;5040884;28;20495;-45
2022/01/27 13:57:15;;;;;;;468.87;39.97;;;;;;;;;;5036867;28;20950;-46
2022/01/27 13:59:45;;;;;;;420.63;39.53;;;;;;;;;;5042056;28;20474;-44
2022/01/27 14:02:16;;;;;;;406.70;36.47;;;;;;;;;;5039360;28;20809;-44
2022/01/27 14:04:43;;;;;;;295.67;24.27;;;;;;;;;;5037799;28;21011;-45
2022/01/27 14:07:10;;;;;;;470.27;45.23;;;;;;;;;;5041410;28;20884;-44
2022/01/27 14:09:41;;;;;;;357.53;38.60;;;;;;;;;;5041604;28;20479;-45
2022/01/27 14:12:09;;;;;;;404.57;39.00;;;;;;;;;;5043032;28;20490;-44
2022/01/27 14:14:51;;;;;;;439.47;41.33;;;;;;;;;;5044630;28;20783;-44
2022/01/27 14:17:19;;;;;;;442.13;37.63;;;;;;;;;;5040972;28;20478;-45
2022/01/27 14:19:47;;;;;;;358.00;35.47;;;;;;;;;;5037378;28;20492;-45
2022/01/27 14:22:16;;;;;;;443.30;44.90;;;;;;;;;;5042276;28;20494;-44
2022/01/27 14:24:58;;;;;;;406.47;35.23;;;;;;;;;;5040836;28;20480;-45
2022/01/27 14:27:32;;;;;;;427.57;37.30;;;;;;;;;;5024907;28;21296;-45
2022/01/27 14:30:00;;;;;;;389.93;42.30;;;;;;;;;;5031234;28;20478;-43
2022/01/27 14:32:27;;;;;;;413.63;44.63;;;;;;;;;;5057118;28;20499;-44
2022/01/27 14:34:54;;;;;;;370.93;38.63;;;;;;;;;;5037750;28;20737;-44
2022/01/27 14:37:21;;;;;;;596.17;69.57;;;;;;;;;;5041762;28;20470;-44
2022/01/27 14:39:49;;;;;;;350.43;35.00;;;;;;;;;;5043469;28;20490;-45
2022/01/27 14:42:21;;;;;;;514.57;49.20;;;;;;;;;;5040360;28;21031;-44
2022/01/27 14:44:48;;;;;;;361.80;61.17;;;;;;;;;;5050921;28;20567;-45